sensor_id;sensor_type;location;lat;lon;timestamp;pressure;altitude;pressure_sealevel;temperature;humidity
77366;BME280;66430;50.182;11.704;2023-03-23T00:02:16;93987.71;;;14.22;30.72
77366;BME280;66430;50.182;11.704;2023-03-23T00:04:42;93984.37;;;14.22;30.84
77366;BME280;66430;50.182;11.704;2023-03-23T00:07:08;93981.11;;;14.29;30.68
77366;BME280;66430;50.182;11.704;2023-03-23T00:09:33;93976.19;;;14.02;30.72
77366;BME280;66430;50.182;11.704;2023-03-23T00:11:58;93978.19;;;13.94;30.44
77366;BME280;66430;50.182;11.704;2023-03-23T00:14:24;93975.79;;;14.04;30.31
77366;BME280;66430;50.182;11.704;2023-03-23T00:16:49;93981.51;;;14.09;30.27
77366;BME280;66430;50.182;11.704;2023-03-23T00:19:15;93980.45;;;13.90;30.22
77366;BME280;66430;50.182;11.704;2023-03-23T00:21:43;93980.81;;;14.08;30.31
77366;BME280;66430;50.182;11.704;2023-03-23T00:24:08;93981.16;;;14.67;30.08
77366;BME280;66430;50.182;11.704;2023-03-23T00:26:31;93978.57;;;14.24;30.46
77366;BME280;66430;50.182;11.704;2023-03-23T00:28:57;93978.21;;;14.28;30.52
77366;BME280;66430;50.182;11.704;2023-03-23T00:31:22;93969.10;;;14.14;30.87
77366;BME280;66430;50.182;11.704;2023-03-23T00:33:47;93966.28;;;14.52;31.28
77366;BME280;66430;50.182;11.704;2023-03-23T00:36:14;93958.54;;;13.82;31.78
77366;BME280;66430;50.182;11.704;2023-03-23T00:38:39;93961.48;;;14.04;31.76
77366;BME280;66430;50.182;11.704;2023-03-23T00:41:04;93960.27;;;13.97;31.99
77366;BME280;66430;50.182;11.704;2023-03-23T00:43:30;93955.58;;;14.11;32.00
77366;BME280;66430;50.182;11.704;2023-03-23T00:45:55;93955.11;;;14.00;32.18
77366;BME280;66430;50.182;11.704;2023-03-23T00:48:20;93957.07;;;14.07;31.92
77366;BME280;66430;50.182;11.704;2023-03-23T00:50:45;93943.58;;;13.67;32.26
77366;BME280;66430;50.182;11.704;2023-03-23T00:53:10;93935.97;;;14.05;31.89
77366;BME280;66430;50.182;11.704;2023-03-23T00:55:36;93934.59;;;13.93;31.97
77366;BME280;66430;50.182;11.704;2023-03-23T00:58:01;93927.75;;;13.91;31.87
77366;BME280;66430;50.182;11.704;2023-03-23T01:00:27;93921.57;;;13.86;32.09
77366;BME280;66430;50.182;11.704;2023-03-23T01:02:53;93921.80;;;13.71;31.79
77366;BME280;66430;50.182;11.704;2023-03-23T01:05:18;93922.52;;;13.62;31.99
77366;BME280;66430;50.182;11.704;2023-03-23T01:07:43;93925.96;;;14.05;31.56
77366;BME280;66430;50.182;11.704;2023-03-23T01:10:09;93921.62;;;14.38;31.43
77366;BME280;66430;50.182;11.704;2023-03-23T01:12:34;93911.87;;;13.80;31.51
77366;BME280;66430;50.182;11.704;2023-03-23T01:14:59;93904.79;;;13.93;31.71
77366;BME280;66430;50.182;11.704;2023-03-23T01:17:25;93899.72;;;14.35;31.59
77366;BME280;66430;50.182;11.704;2023-03-23T01:19:50;93900.52;;;14.14;31.65
77366;BME280;66430;50.182;11.704;2023-03-23T01:22:16;93900.49;;;14.30;31.83
77366;BME280;66430;50.182;11.704;2023-03-23T01:24:41;93894.17;;;14.04;31.80
77366;BME280;66430;50.182;11.704;2023-03-23T01:27:06;93898.26;;;13.85;32.13
77366;BME280;66430;50.182;11.704;2023-03-23T01:29:32;93896.26;;;14.10;31.84
77366;BME280;66430;50.182;11.704;2023-03-23T01:31:57;93890.04;;;13.95;31.95
77366;BME280;66430;50.182;11.704;2023-03-23T01:34:24;93885.78;;;14.35;31.74
77366;BME280;66430;50.182;11.704;2023-03-23T01:36:48;93882.89;;;14.26;31.74
77366;BME280;66430;50.182;11.704;2023-03-23T01:39:14;93883.95;;;14.00;32.00
77366;BME280;66430;50.182;11.704;2023-03-23T01:41:39;93882.72;;;13.93;31.77
77366;BME280;66430;50.182;11.704;2023-03-23T01:44:07;93880.35;;;14.14;31.62
77366;BME280;66430;50.182;11.704;2023-03-23T01:46:31;93881.35;;;14.01;31.51
77366;BME280;66430;50.182;11.704;2023-03-23T01:48:58;93880.02;;;14.28;31.34
77366;BME280;66430;50.182;11.704;2023-03-23T01:51:21;93879.42;;;13.92;31.42
77366;BME280;66430;50.182;11.704;2023-03-23T01:53:49;93881.66;;;14.12;31.43
77366;BME280;66430;50.182;11.704;2023-03-23T01:56:13;93881.81;;;13.91;31.80
77366;BME280;66430;50.182;11.704;2023-03-23T01:58:38;93878.84;;;13.78;31.51
77366;BME280;66430;50.182;11.704;2023-03-23T02:01:05;93873.11;;;14.20;31.29
77366;BME280;66430;50.182;11.704;2023-03-23T02:03:28;93879.18;;;13.91;31.20
77366;BME280;66430;50.182;11.704;2023-03-23T02:05:54;93874.95;;;14.07;31.22
77366;BME280;66430;50.182;11.704;2023-03-23T02:08:19;93882.24;;;14.09;31.39
77366;BME280;66430;50.182;11.704;2023-03-23T02:10:44;93887.78;;;13.98;31.61
77366;BME280;66430;50.182;11.704;2023-03-23T02:13:11;93885.43;;;13.94;31.36
77366;BME280;66430;50.182;11.704;2023-03-23T02:15:42;93881.74;;;14.20;31.32
77366;BME280;66430;50.182;11.704;2023-03-23T02:18:06;93885.74;;;13.69;31.47
77366;BME280;66430;50.182;11.704;2023-03-23T02:20:41;93877.34;;;14.19;31.40
77366;BME280;66430;50.182;11.704;2023-03-23T02:23:08;93874.34;;;14.13;31.30
77366;BME280;66430;50.182;11.704;2023-03-23T02:25:32;93873.89;;;14.30;31.33
77366;BME280;66430;50.182;11.704;2023-03-23T02:27:56;93870.78;;;13.84;31.40
77366;BME280;66430;50.182;11.704;2023-03-23T02:30:15;93874.50;;;14.25;31.08
77366;BME280;66430;50.182;11.704;2023-03-23T02:32:45;93865.12;;;14.05;31.27
77366;BME280;66430;50.182;11.704;2023-03-23T02:35:00;93863.02;;;13.87;31.55
77366;BME280;66430;50.182;11.704;2023-03-23T02:37:27;93857.30;;;14.20;31.53
77366;BME280;66430;50.182;11.704;2023-03-23T02:39:51;93852.54;;;14.06;31.71
77366;BME280;66430;50.182;11.704;2023-03-23T02:42:18;93850.43;;;14.20;31.61
77366;BME280;66430;50.182;11.704;2023-03-23T02:44:43;93844.39;;;13.82;32.32
77366;BME280;66430;50.182;11.704;2023-03-23T02:47:07;93840.65;;;13.74;32.07
77366;BME280;66430;50.182;11.704;2023-03-23T02:49:34;93830.82;;;13.82;31.95
77366;BME280;66430;50.182;11.704;2023-03-23T02:51:56;93824.18;;;13.73;32.43
77366;BME280;66430;50.182;11.704;2023-03-23T02:54:23;93826.09;;;14.06;32.12
77366;BME280;66430;50.182;11.704;2023-03-23T02:56:47;93827.48;;;13.76;32.58
77366;BME280;66430;50.182;11.704;2023-03-23T02:59:12;93833.53;;;13.74;32.60
77366;BME280;66430;50.182;11.704;2023-03-23T03:01:54;93832.73;;;13.99;32.30
77366;BME280;66430;50.182;11.704;2023-03-23T03:04:05;93829.99;;;13.60;32.56
77366;BME280;66430;50.182;11.704;2023-03-23T03:06:33;93828.51;;;13.79;32.58
77366;BME280;66430;50.182;11.704;2023-03-23T03:08:57;93830.03;;;13.94;32.45
77366;BME280;66430;50.182;11.704;2023-03-23T03:11:20;93831.78;;;13.92;32.48
77366;BME280;66430;50.182;11.704;2023-03-23T03:13:47;93829.19;;;13.65;32.72
77366;BME280;66430;50.182;11.704;2023-03-23T03:16:18;93838.78;;;13.55;32.97
77366;BME280;66430;50.182;11.704;2023-03-23T03:18:39;93843.71;;;13.93;32.48
77366;BME280;66430;50.182;11.704;2023-03-23T03:21:03;93841.80;;;13.71;32.67
77366;BME280;66430;50.182;11.704;2023-03-23T03:23:27;93835.73;;;13.91;32.54
77366;BME280;66430;50.182;11.704;2023-03-23T03:25:52;93842.80;;;13.82;32.58
77366;BME280;66430;50.182;11.704;2023-03-23T03:28:17;93848.62;;;13.47;32.77
77366;BME280;66430;50.182;11.704;2023-03-23T03:30:43;93849.61;;;13.72;32.70
77366;BME280;66430;50.182;11.704;2023-03-23T03:33:08;93848.01;;;13.54;32.60
77366;BME280;66430;50.182;11.704;2023-03-23T03:35:36;93848.76;;;13.80;32.45
77366;BME280;66430;50.182;11.704;2023-03-23T03:38:05;93855.44;;;13.78;32.49
77366;BME280;66430;50.182;11.704;2023-03-23T03:40:24;93850.04;;;13.53;32.45
77366;BME280;66430;50.182;11.704;2023-03-23T03:42:49;93853.54;;;13.51;32.50
77366;BME280;66430;50.182;11.704;2023-03-23T03:45:17;93857.49;;;13.53;32.60
77366;BME280;66430;50.182;11.704;2023-03-23T03:47:40;93854.96;;;13.96;32.29
77366;BME280;66430;50.182;11.704;2023-03-23T03:50:06;93854.98;;;13.84;32.44
77366;BME280;66430;50.182;11.704;2023-03-23T03:52:31;93854.63;;;13.98;32.31
77366;BME280;66430;50.182;11.704;2023-03-23T03:54:57;93852.69;;;14.00;32.19
77366;BME280;66430;50.182;11.704;2023-03-23T03:57:22;93853.98;;;14.02;32.17
77366;BME280;66430;50.182;11.704;2023-03-23T03:59:47;93856.50;;;14.11;32.10
77366;BME280;66430;50.182;11.704;2023-03-23T04:02:12;93858.67;;;13.87;32.11
77366;BME280;66430;50.182;11.704;2023-03-23T04:04:38;93857.81;;;14.12;32.12
77366;BME280;66430;50.182;11.704;2023-03-23T04:07:03;93850.11;;;13.88;31.93
77366;BME280;66430;50.182;11.704;2023-03-23T04:09:29;93851.05;;;13.67;32.43
77366;BME280;66430;50.182;11.704;2023-03-23T04:11:54;93850.14;;;13.70;32.20
77366;BME280;66430;50.182;11.704;2023-03-23T04:14:20;93857.08;;;14.14;31.96
77366;BME280;66430;50.182;11.704;2023-03-23T04:16:45;93859.90;;;14.21;31.89
77366;BME280;66430;50.182;11.704;2023-03-23T04:19:10;93859.04;;;14.50;31.76
77366;BME280;66430;50.182;11.704;2023-03-23T04:21:36;93860.77;;;14.08;31.79
77366;BME280;66430;50.182;11.704;2023-03-23T04:24:01;93863.39;;;14.08;31.83
77366;BME280;66430;50.182;11.704;2023-03-23T04:26:27;93856.90;;;13.89;31.65
77366;BME280;66430;50.182;11.704;2023-03-23T04:28:52;93855.49;;;14.10;31.53
77366;BME280;66430;50.182;11.704;2023-03-23T04:31:18;93860.42;;;14.25;31.53
77366;BME280;66430;50.182;11.704;2023-03-23T04:33:43;93855.84;;;14.07;31.73
77366;BME280;66430;50.182;11.704;2023-03-23T04:36:08;93859.61;;;14.14;31.76
77366;BME280;66430;50.182;11.704;2023-03-23T04:38:34;93858.52;;;13.86;31.92
77366;BME280;66430;50.182;11.704;2023-03-23T04:41:00;93857.36;;;14.28;31.59
77366;BME280;66430;50.182;11.704;2023-03-23T04:43:25;93857.40;;;13.98;31.69
77366;BME280;66430;50.182;11.704;2023-03-23T04:45:53;93856.55;;;14.16;31.66
77366;BME280;66430;50.182;11.704;2023-03-23T04:48:15;93857.85;;;14.07;31.60
77366;BME280;66430;50.182;11.704;2023-03-23T04:50:41;93857.66;;;14.52;31.58
77366;BME280;66430;50.182;11.704;2023-03-23T04:53:06;93859.22;;;13.81;31.90
77366;BME280;66430;50.182;11.704;2023-03-23T04:55:33;93854.67;;;13.90;31.92
77366;BME280;66430;50.182;11.704;2023-03-23T04:57:57;93853.15;;;13.83;31.85
77366;BME280;66430;50.182;11.704;2023-03-23T05:00:23;93856.72;;;13.76;31.97
77366;BME280;66430;50.182;11.704;2023-03-23T05:02:48;93851.78;;;13.96;32.05
77366;BME280;66430;50.182;11.704;2023-03-23T05:05:14;93852.11;;;13.92;31.65
77366;BME280;66430;50.182;11.704;2023-03-23T05:07:39;93851.92;;;14.15;31.52
77366;BME280;66430;50.182;11.704;2023-03-23T05:10:06;93851.35;;;14.30;31.49
77366;BME280;66430;50.182;11.704;2023-03-23T05:12:30;93856.12;;;14.09;31.57
77366;BME280;66430;50.182;11.704;2023-03-23T05:14:55;93858.93;;;14.30;31.49
77366;BME280;66430;50.182;11.704;2023-03-23T05:17:21;93858.73;;;14.26;31.65
77366;BME280;66430;50.182;11.704;2023-03-23T05:19:46;93857.32;;;13.88;31.74
77366;BME280;66430;50.182;11.704;2023-03-23T05:22:11;93854.48;;;14.26;31.56
77366;BME280;66430;50.182;11.704;2023-03-23T05:24:37;93857.56;;;14.01;31.60
77366;BME280;66430;50.182;11.704;2023-03-23T05:27:02;93854.83;;;14.26;31.66
77366;BME280;66430;50.182;11.704;2023-03-23T05:29:28;93860.38;;;13.75;32.05
77366;BME280;66430;50.182;11.704;2023-03-23T05:31:53;93865.19;;;13.81;32.27
77366;BME280;66430;50.182;11.704;2023-03-23T05:34:20;93863.23;;;13.87;32.08
77366;BME280;66430;50.182;11.704;2023-03-23T05:36:44;93863.42;;;13.87;32.22
77366;BME280;66430;50.182;11.704;2023-03-23T05:39:10;93868.36;;;13.62;32.78
77366;BME280;66430;50.182;11.704;2023-03-23T05:41:35;93861.18;;;13.76;33.18
77366;BME280;66430;50.182;11.704;2023-03-23T05:44:00;93870.16;;;13.88;34.18
77366;BME280;66430;50.182;11.704;2023-03-23T05:46:25;93867.83;;;13.91;34.78
77366;BME280;66430;50.182;11.704;2023-03-23T05:48:51;93874.00;;;13.93;34.71
77366;BME280;66430;50.182;11.704;2023-03-23T05:51:16;93863.92;;;13.88;34.91
77366;BME280;66430;50.182;11.704;2023-03-23T05:53:42;93869.42;;;14.06;34.48
77366;BME280;66430;50.182;11.704;2023-03-23T05:56:07;93873.05;;;13.81;35.21
77366;BME280;66430;50.182;11.704;2023-03-23T05:58:33;93876.28;;;13.95;34.84
77366;BME280;66430;50.182;11.704;2023-03-23T06:00:58;93870.71;;;13.58;34.74
77366;BME280;66430;50.182;11.704;2023-03-23T06:03:23;93876.03;;;13.38;34.94
77366;BME280;66430;50.182;11.704;2023-03-23T06:05:49;93878.43;;;13.62;34.76
77366;BME280;66430;50.182;11.704;2023-03-23T06:08:14;93881.55;;;13.90;34.34
77366;BME280;66430;50.182;11.704;2023-03-23T06:10:40;93880.92;;;13.81;34.40
77366;BME280;66430;50.182;11.704;2023-03-23T06:13:05;93877.54;;;13.96;34.28
77366;BME280;66430;50.182;11.704;2023-03-23T06:15:31;93879.81;;;14.13;34.17
77366;BME280;66430;50.182;11.704;2023-03-23T06:17:58;93880.26;;;14.15;34.32
77366;BME280;66430;50.182;11.704;2023-03-23T06:20:21;93882.07;;;14.22;34.23
77366;BME280;66430;50.182;11.704;2023-03-23T06:22:47;93887.24;;;14.22;34.01
77366;BME280;66430;50.182;11.704;2023-03-23T06:25:12;93891.56;;;14.37;33.96
77366;BME280;66430;50.182;11.704;2023-03-23T06:27:38;93883.22;;;14.17;33.90
77366;BME280;66430;50.182;11.704;2023-03-23T06:30:04;93880.11;;;14.24;33.74
77366;BME280;66430;50.182;11.704;2023-03-23T06:32:30;93883.29;;;14.00;34.02
77366;BME280;66430;50.182;11.704;2023-03-23T06:34:54;93880.91;;;14.24;33.77
77366;BME280;66430;50.182;11.704;2023-03-23T06:37:19;93879.90;;;14.45;33.86
77366;BME280;66430;50.182;11.704;2023-03-23T06:39:45;93880.36;;;14.12;33.71
77366;BME280;66430;50.182;11.704;2023-03-23T06:42:11;93883.16;;;14.30;33.55
77366;BME280;66430;50.182;11.704;2023-03-23T06:44:35;93886.32;;;14.64;33.34
77366;BME280;66430;50.182;11.704;2023-03-23T06:47:01;93889.35;;;14.05;33.96
77366;BME280;66430;50.182;11.704;2023-03-23T06:49:26;93885.66;;;14.59;33.53
77366;BME280;66430;50.182;11.704;2023-03-23T06:51:52;93884.52;;;14.49;33.69
77366;BME280;66430;50.182;11.704;2023-03-23T06:54:17;93886.69;;;14.13;33.81
77366;BME280;66430;50.182;11.704;2023-03-23T06:56:42;93890.30;;;14.19;33.82
77366;BME280;66430;50.182;11.704;2023-03-23T06:59:08;93890.74;;;14.33;34.00
77366;BME280;66430;50.182;11.704;2023-03-23T07:01:33;93898.20;;;14.35;34.05
77366;BME280;66430;50.182;11.704;2023-03-23T07:03:59;93897.34;;;14.59;33.69
77366;BME280;66430;50.182;11.704;2023-03-23T07:06:26;93900.94;;;14.61;33.81
77366;BME280;66430;50.182;11.704;2023-03-23T07:08:49;93909.13;;;14.40;33.84
77366;BME280;66430;50.182;11.704;2023-03-23T07:11:15;93914.81;;;14.28;34.27
77366;BME280;66430;50.182;11.704;2023-03-23T07:13:41;93920.72;;;14.33;35.23
77366;BME280;66430;50.182;11.704;2023-03-23T07:16:07;93927.33;;;13.90;36.07
77366;BME280;66430;50.182;11.704;2023-03-23T07:18:31;93930.86;;;14.26;35.95
77366;BME280;66430;50.182;11.704;2023-03-23T07:20:56;93929.19;;;14.22;36.57
77366;BME280;66430;50.182;11.704;2023-03-23T07:23:22;93931.39;;;14.35;37.02
77366;BME280;66430;50.182;11.704;2023-03-23T07:25:47;93934.75;;;14.41;36.61
77366;BME280;66430;50.182;11.704;2023-03-23T07:28:13;93938.83;;;14.01;37.32
77366;BME280;66430;50.182;11.704;2023-03-23T07:30:39;93941.21;;;14.44;37.34
77366;BME280;66430;50.182;11.704;2023-03-23T07:33:04;93941.69;;;13.90;37.53
77366;BME280;66430;50.182;11.704;2023-03-23T07:35:29;93942.79;;;14.28;37.20
77366;BME280;66430;50.182;11.704;2023-03-23T07:37:55;93952.01;;;14.20;37.80
77366;BME280;66430;50.182;11.704;2023-03-23T07:40:20;93949.67;;;13.82;38.75
77366;BME280;66430;50.182;11.704;2023-03-23T07:42:51;93950.12;;;14.32;37.99
77366;BME280;66430;50.182;11.704;2023-03-23T07:45:12;93951.76;;;14.09;39.02
77366;BME280;66430;50.182;11.704;2023-03-23T07:47:36;93952.94;;;14.24;39.06
77366;BME280;66430;50.182;11.704;2023-03-23T07:50:01;93954.33;;;14.17;39.42
77366;BME280;66430;50.182;11.704;2023-03-23T07:52:27;93953.41;;;13.93;39.66
77366;BME280;66430;50.182;11.704;2023-03-23T07:54:52;93955.90;;;14.44;39.09
77366;BME280;66430;50.182;11.704;2023-03-23T07:57:18;93955.09;;;14.53;39.06
77366;BME280;66430;50.182;11.704;2023-03-23T07:59:43;93954.80;;;14.60;39.05
77366;BME280;66430;50.182;11.704;2023-03-23T08:02:09;93957.76;;;14.32;38.94
77366;BME280;66430;50.182;11.704;2023-03-23T08:04:34;93956.82;;;13.99;39.05
77366;BME280;66430;50.182;11.704;2023-03-23T08:06:59;93956.55;;;14.56;38.94
77366;BME280;66430;50.182;11.704;2023-03-23T08:09:25;93959.04;;;14.67;38.94
77366;BME280;66430;50.182;11.704;2023-03-23T08:11:50;93951.45;;;14.53;38.98
77366;BME280;66430;50.182;11.704;2023-03-23T08:14:16;93958.17;;;14.33;38.93
77366;BME280;66430;50.182;11.704;2023-03-23T08:16:41;93963.04;;;14.37;38.95
77366;BME280;66430;50.182;11.704;2023-03-23T08:19:07;93965.47;;;14.37;38.87
77366;BME280;66430;50.182;11.704;2023-03-23T08:21:32;93965.99;;;14.12;38.95
77366;BME280;66430;50.182;11.704;2023-03-23T08:23:57;93963.35;;;14.27;38.92
77366;BME280;66430;50.182;11.704;2023-03-23T08:26:22;93968.11;;;14.23;39.25
77366;BME280;66430;50.182;11.704;2023-03-23T08:28:48;93970.14;;;13.77;39.55
77366;BME280;66430;50.182;11.704;2023-03-23T08:31:14;93968.86;;;14.12;39.83
77366;BME280;66430;50.182;11.704;2023-03-23T08:33:39;93967.87;;;14.41;39.32
77366;BME280;66430;50.182;11.704;2023-03-23T08:36:05;93963.39;;;14.01;39.63
77366;BME280;66430;50.182;11.704;2023-03-23T08:38:30;93963.24;;;14.07;39.33
77366;BME280;66430;50.182;11.704;2023-03-23T08:40:58;93964.72;;;14.11;39.44
77366;BME280;66430;50.182;11.704;2023-03-23T08:43:21;93958.27;;;14.66;39.15
77366;BME280;66430;50.182;11.704;2023-03-23T08:45:46;93952.19;;;14.65;39.28
77366;BME280;66430;50.182;11.704;2023-03-23T08:48:11;93957.71;;;14.44;39.27
77366;BME280;66430;50.182;11.704;2023-03-23T08:50:37;93960.04;;;14.36;39.39
77366;BME280;66430;50.182;11.704;2023-03-23T08:53:02;93962.56;;;14.69;39.43
77366;BME280;66430;50.182;11.704;2023-03-23T08:55:29;93968.55;;;14.65;39.20
77366;BME280;66430;50.182;11.704;2023-03-23T08:57:53;93959.54;;;14.03;39.44
77366;BME280;66430;50.182;11.704;2023-03-23T09:00:21;93963.84;;;14.66;39.09
77366;BME280;66430;50.182;11.704;2023-03-23T09:02:45;93960.69;;;14.32;39.03
77366;BME280;66430;50.182;11.704;2023-03-23T09:05:10;93961.70;;;14.09;39.73
77366;BME280;66430;50.182;11.704;2023-03-23T09:07:35;93963.87;;;14.33;39.21
77366;BME280;66430;50.182;11.704;2023-03-23T09:10:00;93960.48;;;14.72;39.30
77366;BME280;66430;50.182;11.704;2023-03-23T09:12:25;93966.65;;;14.64;39.07
77366;BME280;66430;50.182;11.704;2023-03-23T09:14:51;93965.43;;;14.25;39.78
77366;BME280;66430;50.182;11.704;2023-03-23T09:17:17;93966.02;;;14.27;40.14
77366;BME280;66430;50.182;11.704;2023-03-23T09:19:42;93963.99;;;14.22;39.36
77366;BME280;66430;50.182;11.704;2023-03-23T09:22:07;93966.24;;;14.30;39.25
77366;BME280;66430;50.182;11.704;2023-03-23T09:24:33;93964.69;;;14.70;38.87
77366;BME280;66430;50.182;11.704;2023-03-23T09:27:03;93966.28;;;14.46;39.23
77366;BME280;66430;50.182;11.704;2023-03-23T09:29:23;93969.53;;;14.18;39.35
77366;BME280;66430;50.182;11.704;2023-03-23T09:31:49;93967.29;;;14.70;38.86
77366;BME280;66430;50.182;11.704;2023-03-23T09:34:15;93967.09;;;14.31;39.41
77366;BME280;66430;50.182;11.704;2023-03-23T09:36:41;93971.21;;;14.90;39.00
77366;BME280;66430;50.182;11.704;2023-03-23T09:39:05;93973.79;;;14.86;39.04
77366;BME280;66430;50.182;11.704;2023-03-23T09:41:43;93974.37;;;14.58;38.53
77366;BME280;66430;50.182;11.704;2023-03-23T09:44:05;93974.12;;;14.73;38.70
77366;BME280;66430;50.182;11.704;2023-03-23T09:46:33;93972.89;;;14.53;38.92
77366;BME280;66430;50.182;11.704;2023-03-23T09:48:51;93974.23;;;14.83;38.90
77366;BME280;66430;50.182;11.704;2023-03-23T09:51:24;93982.32;;;14.48;38.60
77366;BME280;66430;50.182;11.704;2023-03-23T09:53:40;93980.26;;;14.54;39.15
77366;BME280;66430;50.182;11.704;2023-03-23T09:56:10;93980.01;;;14.62;39.28
77366;BME280;66430;50.182;11.704;2023-03-23T09:58:32;93975.20;;;15.04;38.84
77366;BME280;66430;50.182;11.704;2023-03-23T10:00:58;93976.05;;;14.92;38.57
77366;BME280;66430;50.182;11.704;2023-03-23T10:03:21;93973.82;;;15.09;38.36
77366;BME280;66430;50.182;11.704;2023-03-23T10:05:47;93976.49;;;15.21;38.18
77366;BME280;66430;50.182;11.704;2023-03-23T10:08:14;93974.34;;;15.14;38.12
77366;BME280;66430;50.182;11.704;2023-03-23T10:10:46;93974.80;;;15.29;38.27
77366;BME280;66430;50.182;11.704;2023-03-23T10:13:04;93977.05;;;15.32;38.14
77366;BME280;66430;50.182;11.704;2023-03-23T10:15:28;93976.63;;;15.34;37.98
77366;BME280;66430;50.182;11.704;2023-03-23T10:17:55;93976.40;;;15.09;38.08
77366;BME280;66430;50.182;11.704;2023-03-23T10:20:27;93979.69;;;15.38;38.06
77366;BME280;66430;50.182;11.704;2023-03-23T10:22:48;93986.16;;;15.27;37.56
77366;BME280;66430;50.182;11.704;2023-03-23T10:25:15;93987.31;;;15.32;37.65
77366;BME280;66430;50.182;11.704;2023-03-23T10:27:37;93984.53;;;14.49;37.95
77366;BME280;66430;50.182;11.704;2023-03-23T10:30:10;93991.60;;;15.20;37.67
77366;BME280;66430;50.182;11.704;2023-03-23T10:32:37;93989.56;;;14.65;38.42
77366;BME280;66430;50.182;11.704;2023-03-23T10:34:54;93994.93;;;15.22;37.49
77366;BME280;66430;50.182;11.704;2023-03-23T10:37:19;93991.90;;;15.01;37.58
77366;BME280;66430;50.182;11.704;2023-03-23T10:39:46;93993.43;;;15.18;37.39
77366;BME280;66430;50.182;11.704;2023-03-23T10:42:06;93990.15;;;15.05;37.54
77366;BME280;66430;50.182;11.704;2023-03-23T10:44:31;94001.44;;;15.03;37.66
77366;BME280;66430;50.182;11.704;2023-03-23T10:46:59;94000.40;;;15.22;37.56
77366;BME280;66430;50.182;11.704;2023-03-23T10:49:25;94004.66;;;14.90;37.76
77366;BME280;66430;50.182;11.704;2023-03-23T10:51:53;94004.40;;;14.82;37.74
77366;BME280;66430;50.182;11.704;2023-03-23T10:56:40;94006.39;;;14.78;38.18
77366;BME280;66430;50.182;11.704;2023-03-23T10:59:12;94011.44;;;14.96;38.81
77366;BME280;66430;50.182;11.704;2023-03-23T11:01:31;94009.23;;;14.98;38.40
77366;BME280;66430;50.182;11.704;2023-03-23T11:03:54;94007.73;;;14.61;39.10
77366;BME280;66430;50.182;11.704;2023-03-23T11:06:22;94002.65;;;14.96;38.99
77366;BME280;66430;50.182;11.704;2023-03-23T11:08:51;93995.79;;;14.85;39.05
77366;BME280;66430;50.182;11.704;2023-03-23T11:11:17;93999.45;;;15.06;39.12
77366;BME280;66430;50.182;11.704;2023-03-23T11:13:41;94004.06;;;15.03;39.35
77366;BME280;66430;50.182;11.704;2023-03-23T11:16:01;94002.33;;;15.44;38.95
77366;BME280;66430;50.182;11.704;2023-03-23T11:18:34;94009.89;;;14.98;38.89
77366;BME280;66430;50.182;11.704;2023-03-23T11:20:54;94006.31;;;15.27;38.97
77366;BME280;66430;50.182;11.704;2023-03-23T11:23:21;94006.43;;;15.18;38.85
77366;BME280;66430;50.182;11.704;2023-03-23T11:25:55;94013.03;;;14.52;39.29
77366;BME280;66430;50.182;11.704;2023-03-23T11:28:08;94002.91;;;15.21;39.06
77366;BME280;66430;50.182;11.704;2023-03-23T11:30:33;94003.50;;;15.11;39.62
77366;BME280;66430;50.182;11.704;2023-03-23T11:33:01;94008.40;;;15.07;39.57
77366;BME280;66430;50.182;11.704;2023-03-23T11:35:27;94006.27;;;15.34;39.08
77366;BME280;66430;50.182;11.704;2023-03-23T11:37:51;94000.27;;;15.61;39.30
77366;BME280;66430;50.182;11.704;2023-03-23T11:40:17;93999.93;;;15.53;39.24
77366;BME280;66430;50.182;11.704;2023-03-23T11:42:44;94009.03;;;15.08;39.33
77366;BME280;66430;50.182;11.704;2023-03-23T11:45:18;94001.83;;;15.42;39.01
77366;BME280;66430;50.182;11.704;2023-03-23T11:47:36;94000.09;;;15.78;39.09
77366;BME280;66430;50.182;11.704;2023-03-23T11:50:03;94000.94;;;15.55;39.58
77366;BME280;66430;50.182;11.704;2023-03-23T11:52:28;93997.73;;;16.09;39.23
77366;BME280;66430;50.182;11.704;2023-03-23T11:54:52;94001.77;;;15.77;39.38
77366;BME280;66430;50.182;11.704;2023-03-23T11:57:12;94002.77;;;15.86;38.84
77366;BME280;66430;50.182;11.704;2023-03-23T11:59:38;93997.32;;;15.54;39.61
77366;BME280;66430;50.182;11.704;2023-03-23T12:04:35;93993.72;;;15.83;38.58
77366;BME280;66430;50.182;11.704;2023-03-23T12:07:03;93992.83;;;15.86;38.35
77366;BME280;66430;50.182;11.704;2023-03-23T12:09:30;93995.65;;;15.68;38.28
77366;BME280;66430;50.182;11.704;2023-03-23T12:11:53;93994.67;;;15.91;38.18
77366;BME280;66430;50.182;11.704;2023-03-23T12:14:18;93995.74;;;16.12;38.23
77366;BME280;66430;50.182;11.704;2023-03-23T12:16:50;93992.66;;;15.87;37.95
77366;BME280;66430;50.182;11.704;2023-03-23T12:19:06;93989.50;;;15.85;37.66
77366;BME280;66430;50.182;11.704;2023-03-23T12:21:34;93993.52;;;15.79;37.94
77366;BME280;66430;50.182;11.704;2023-03-23T12:23:57;94003.66;;;15.40;37.95
77366;BME280;66430;50.182;11.704;2023-03-23T12:26:20;94007.39;;;16.14;37.30
77366;BME280;66430;50.182;11.704;2023-03-23T12:28:52;94007.00;;;15.94;37.37
77366;BME280;66430;50.182;11.704;2023-03-23T12:31:13;94007.38;;;15.93;36.71
77366;BME280;66430;50.182;11.704;2023-03-23T12:33:42;94013.05;;;15.91;36.64
77366;BME280;66430;50.182;11.704;2023-03-23T12:36:07;94009.03;;;15.61;36.91
77366;BME280;66430;50.182;11.704;2023-03-23T12:41:02;94009.96;;;15.92;37.09
77366;BME280;66430;50.182;11.704;2023-03-23T12:43:22;94010.08;;;15.81;37.05
77366;BME280;66430;50.182;11.704;2023-03-23T12:45:51;94019.68;;;15.86;37.19
77366;BME280;66430;50.182;11.704;2023-03-23T12:48:10;94009.67;;;15.40;37.23